Time;durP1;ratioP1;P1;durP2;ratioP2;P2;SDS_P1;SDS_P2;PMS_P1;PMS_P2;Temp;Humidity;BMP_temperature;BMP_pressure;BME280_temperature;BME280_humidity;BME280_pressure;Samples;Min_cycle;Max_cycle;Signal;HPM_P1;HPM_P2
2023/09/30 00:00:56;;;;;;;7.47;2.00;;;17.80;99.90;;;;;;5051918;28;20029;-46
2023/09/30 00:03:22;;;;;;;4.15;1.98;;;17.80;99.90;;;;;;5051630;28;20412;-46
2023/09/30 00:05:47;;;;;;;5.60;2.25;;;17.80;99.90;;;;;;5051646;28;20043;-46
2023/09/30 00:08:13;;;;;;;9.00;3.33;;;17.80;99.90;;;;;;5051444;28;20054;-45
2023/09/30 00:10:38;;;;;;;6.78;2.70;;;17.80;99.90;;;;;;5051304;28;20021;-46
2023/09/30 00:13:06;;;;;;;8.00;2.40;;;17.80;99.90;;;;;;5051575;28;20029;-46
2023/09/30 00:15:32;;;;;;;3.38;2.10;;;17.80;99.90;;;;;;5051439;28;20028;-47
2023/09/30 00:17:58;;;;;;;5.63;2.55;;;17.80;99.90;;;;;;5051618;28;20090;-49
2023/09/30 00:20:24;;;;;;;6.95;2.13;;;17.80;99.90;;;;;;5051636;28;20037;-47
2023/09/30 00:22:49;;;;;;;5.80;2.20;;;17.80;99.90;;;;;;5051460;28;20074;-48
2023/09/30 00:25:15;;;;;;;6.13;2.47;;;17.80;99.90;;;;;;5051158;28;20067;-46
2023/09/30 00:27:40;;;;;;;5.32;2.90;;;17.80;99.90;;;;;;5051426;28;20061;-46
2023/09/30 00:30:07;;;;;;;8.10;2.58;;;17.80;99.90;;;;;;5051566;28;20393;-47
2023/09/30 00:32:33;;;;;;;4.00;2.28;;;17.70;99.90;;;;;;5051306;28;20043;-46
2023/09/30 00:35:01;;;;;;;3.95;2.65;;;17.70;99.90;;;;;;5051080;28;20029;-50
2023/09/30 00:37:27;;;;;;;9.40;3.42;;;17.60;99.90;;;;;;5050133;28;20072;-46
2023/09/30 00:39:52;;;;;;;6.55;2.50;;;17.60;99.90;;;;;;5051477;28;20053;-47
2023/09/30 00:42:20;;;;;;;7.82;2.65;;;17.60;99.90;;;;;;5051360;28;20028;-49
2023/09/30 00:44:46;;;;;;;9.95;2.53;;;17.70;99.90;;;;;;5051190;28;20021;-49
2023/09/30 00:47:12;;;;;;;5.57;2.75;;;17.70;99.90;;;;;;5052816;28;20112;-46
2023/09/30 00:49:38;;;;;;;4.75;2.10;;;17.60;99.90;;;;;;5052344;28;20556;-47
2023/09/30 00:52:04;;;;;;;5.57;2.45;;;17.60;99.90;;;;;;5052110;28;20052;-46
2023/09/30 00:54:31;;;;;;;5.45;2.55;;;17.60;99.90;;;;;;5051029;28;20099;-46
2023/09/30 00:56:57;;;;;;;9.02;3.40;;;17.50;99.90;;;;;;5051148;28;20025;-46
2023/09/30 00:59:25;;;;;;;5.25;2.67;;;17.50;99.90;;;;;;5051183;28;20078;-45
2023/09/30 01:01:50;;;;;;;9.05;3.38;;;17.50;99.90;;;;;;5051534;28;20396;-45
2023/09/30 01:04:16;;;;;;;8.43;2.78;;;17.50;99.90;;;;;;5049640;28;20029;-45
2023/09/30 01:06:42;;;;;;;7.88;2.90;;;17.50;99.90;;;;;;5051000;28;20032;-49
2023/09/30 01:09:08;;;;;;;12.43;5.18;;;17.50;99.90;;;;;;5049893;28;20032;-47
2023/09/30 01:11:34;;;;;;;5.57;3.03;;;17.60;99.90;;;;;;5051018;28;20021;-46
2023/09/30 01:13:59;;;;;;;6.53;2.28;;;17.60;99.90;;;;;;5050826;28;20029;-46
2023/09/30 01:16:25;;;;;;;6.72;2.95;;;17.50;99.90;;;;;;5050927;28;20088;-46
2023/09/30 01:18:51;;;;;;;10.00;2.58;;;17.60;99.90;;;;;;5051012;28;20033;-45
2023/09/30 01:21:18;;;;;;;6.10;2.50;;;17.60;99.90;;;;;;5053724;28;20087;-47
2023/09/30 01:23:46;;;;;;;7.22;2.70;;;17.50;99.90;;;;;;5054518;28;20443;-48
2023/09/30 01:26:12;;;;;;;6.05;2.88;;;17.50;99.90;;;;;;5054522;28;20047;-47
2023/09/30 01:28:39;;;;;;;5.30;2.40;;;17.50;99.90;;;;;;5054738;28;20090;-46
2023/09/30 01:31:05;;;;;;;8.40;3.15;;;17.30;99.90;;;;;;5054749;28;20021;-49
2023/09/30 01:33:32;;;;;;;9.20;3.50;;;17.30;99.90;;;;;;5054515;28;20045;-47
2023/09/30 01:36:01;;;;;;;9.00;3.13;;;17.20;99.90;;;;;;5054236;28;20036;-47
2023/09/30 01:38:26;;;;;;;10.10;4.05;;;17.20;99.90;;;;;;5054605;28;20032;-46
2023/09/30 01:40:54;;;;;;;6.72;2.83;;;17.10;99.90;;;;;;5054556;28;20029;-46
2023/09/30 01:43:19;;;;;;;9.90;3.38;;;17.10;99.90;;;;;;5054505;28;20048;-47
2023/09/30 01:45:45;;;;;;;7.22;3.45;;;17.00;99.90;;;;;;5054933;28;20080;-48
2023/09/30 01:48:10;;;;;;;11.98;3.55;;;16.90;99.90;;;;;;5054351;28;20029;-47
2023/09/30 01:50:39;;;;;;;9.07;4.63;;;16.90;99.90;;;;;;5054431;28;20484;-47
2023/09/30 01:53:12;;;;;;;14.80;3.58;;;16.80;99.90;;;;;;5054170;28;20104;-46
2023/09/30 01:55:37;;;;;;;9.63;3.15;;;16.80;99.90;;;;;;5054004;28;20483;-47
2023/09/30 01:58:03;;;;;;;10.60;3.47;;;16.70;99.90;;;;;;5054432;28;20104;-48
2023/09/30 02:00:28;;;;;;;7.20;3.40;;;16.80;99.90;;;;;;5054245;28;20025;-45
2023/09/30 02:02:57;;;;;;;8.38;3.50;;;16.70;99.90;;;;;;5054101;28;20021;-45
2023/09/30 02:05:23;;;;;;;9.20;4.68;;;16.70;99.90;;;;;;5053805;28;20036;-46
2023/09/30 02:07:50;;;;;;;9.07;3.88;;;16.70;99.90;;;;;;5054051;28;20024;-47
2023/09/30 02:10:18;;;;;;;9.63;3.70;;;16.70;99.90;;;;;;5054079;28;20351;-44
2023/09/30 02:12:44;;;;;;;10.32;3.28;;;16.70;99.90;;;;;;5053883;28;20036;-46
2023/09/30 02:15:11;;;;;;;10.48;3.03;;;16.70;99.90;;;;;;5053694;28;20025;-43
2023/09/30 02:17:37;;;;;;;15.02;4.20;;;16.70;99.90;;;;;;5053869;28;20090;-45
2023/09/30 02:20:12;;;;;;;11.13;3.88;;;16.70;99.90;;;;;;5053758;28;20492;-45
2023/09/30 02:22:38;;;;;;;9.35;3.88;;;16.70;99.90;;;;;;5053682;28;20079;-44
2023/09/30 02:25:07;;;;;;;7.95;4.10;;;16.60;99.90;;;;;;5053267;28;20040;-43
2023/09/30 02:27:32;;;;;;;9.30;3.40;;;16.60;99.90;;;;;;5053660;28;20028;-43
2023/09/30 02:29:58;;;;;;;10.80;3.75;;;16.70;99.90;;;;;;5053707;28;20096;-44
2023/09/30 02:32:23;;;;;;;7.22;3.75;;;16.60;99.90;;;;;;5052900;28;20047;-47
2023/09/30 02:34:50;;;;;;;9.73;3.50;;;16.60;99.90;;;;;;5053161;28;20028;-46
2023/09/30 02:37:17;;;;;;;7.82;3.45;;;16.60;99.90;;;;;;5053468;28;20090;-51
2023/09/30 02:39:43;;;;;;;11.80;3.70;;;16.60;99.90;;;;;;5053540;28;20078;-47
2023/09/30 02:42:08;;;;;;;14.13;3.45;;;16.50;99.90;;;;;;5053511;28;20025;-46
2023/09/30 02:44:34;;;;;;;10.65;4.03;;;16.50;99.90;;;;;;5053476;28;20037;-48
2023/09/30 02:46:59;;;;;;;14.95;3.72;;;16.40;99.90;;;;;;5053775;28;20122;-46
2023/09/30 02:49:25;;;;;;;10.05;3.78;;;16.50;99.90;;;;;;5053881;28;20152;-44
2023/09/30 02:51:50;;;;;;;6.47;3.28;;;16.40;99.90;;;;;;5053962;28;20029;-45
2023/09/30 02:54:16;;;;;;;11.20;4.05;;;16.40;99.90;;;;;;5053460;28;20025;-48
2023/09/30 02:56:42;;;;;;;10.40;4.18;;;16.40;99.90;;;;;;5053520;28;20389;-47
2023/09/30 02:59:08;;;;;;;14.18;3.63;;;16.40;99.90;;;;;;5053302;28;20013;-46
2023/09/30 03:01:34;;;;;;;9.65;4.50;;;16.40;99.90;;;;;;5053206;28;20025;-47
2023/09/30 03:04:00;;;;;;;10.60;4.57;;;16.40;99.90;;;;;;5052848;28;20087;-49
2023/09/30 03:06:25;;;;;;;9.05;3.83;;;16.40;99.90;;;;;;5053110;28;20028;-44
2023/09/30 03:08:51;;;;;;;9.85;3.40;;;16.40;99.90;;;;;;5053019;28;20146;-47
2023/09/30 03:11:19;;;;;;;12.77;3.92;;;16.30;99.90;;;;;;5053164;28;20021;-49
2023/09/30 03:13:45;;;;;;;9.93;3.35;;;16.30;99.90;;;;;;5052660;28;20021;-49
2023/09/30 03:16:11;;;;;;;9.88;3.45;;;16.30;99.90;;;;;;5052811;28;20036;-48
2023/09/30 03:18:36;;;;;;;8.10;3.05;;;16.30;99.90;;;;;;5052851;28;20064;-49
2023/09/30 03:21:08;;;;;;;10.90;3.80;;;16.30;99.90;;;;;;5052774;28;20518;-51
2023/09/30 03:23:35;;;;;;;10.93;3.78;;;16.30;99.90;;;;;;5052717;28;20489;-47
2023/09/30 03:26:00;;;;;;;11.00;3.67;;;16.20;99.90;;;;;;5052311;28;20091;-48
2023/09/30 03:28:26;;;;;;;7.53;3.33;;;16.30;99.90;;;;;;5052911;28;20025;-47
2023/09/30 03:30:52;;;;;;;10.95;3.67;;;16.20;99.90;;;;;;5052509;28;20032;-43
2023/09/30 03:33:18;;;;;;;11.82;4.50;;;16.10;99.90;;;;;;5052489;28;20017;-45
2023/09/30 03:35:44;;;;;;;10.23;3.80;;;16.10;99.90;;;;;;5051980;28;20063;-49
2023/09/30 03:38:12;;;;;;;9.65;3.28;;;16.10;99.90;;;;;;5052332;28;20017;-45
2023/09/30 03:40:39;;;;;;;10.02;3.60;;;16.00;99.90;;;;;;5052284;28;20021;-47
2023/09/30 03:43:08;;;;;;;11.82;3.50;;;15.90;99.90;;;;;;5052055;28;20040;-48
2023/09/30 03:45:34;;;;;;;9.15;3.70;;;16.00;99.90;;;;;;5051439;28;20029;-44
2023/09/30 03:48:01;;;;;;;17.10;4.60;;;15.90;99.90;;;;;;5052190;28;20050;-45
2023/09/30 03:50:29;;;;;;;11.40;3.70;;;15.90;99.90;;;;;;5050871;28;20029;-45
2023/09/30 03:53:01;;;;;;;14.35;3.35;;;15.90;99.90;;;;;;5051925;28;20043;-45
2023/09/30 03:55:26;;;;;;;9.15;4.00;;;15.90;99.90;;;;;;5051920;28;20065;-44
2023/09/30 03:57:52;;;;;;;13.05;4.43;;;15.80;99.90;;;;;;5052059;28;20400;-49
2023/09/30 04:00:19;;;;;;;13.55;4.25;;;15.80;99.90;;;;;;5052070;28;20572;-47
2023/09/30 04:02:48;;;;;;;8.07;3.28;;;15.70;99.90;;;;;;5051857;28;20060;-47
2023/09/30 04:05:14;;;;;;;9.32;3.67;;;15.70;99.90;;;;;;5051687;28;20496;-45
2023/09/30 04:07:41;;;;;;;10.30;3.60;;;15.70;99.90;;;;;;5052117;28;20047;-45
2023/09/30 04:10:08;;;;;;;8.75;3.83;;;15.60;99.90;;;;;;5052064;28;20503;-47
2023/09/30 04:12:33;;;;;;;8.52;3.22;;;15.60;99.90;;;;;;5051743;28;20025;-47
2023/09/30 04:15:00;;;;;;;11.57;4.35;;;15.60;99.90;;;;;;5051602;28;20024;-46
2023/09/30 04:17:26;;;;;;;12.32;3.58;;;15.60;99.90;;;;;;5051667;28;20409;-44
2023/09/30 04:19:52;;;;;;;9.05;3.70;;;15.60;99.90;;;;;;5051713;28;20108;-44
2023/09/30 04:22:21;;;;;;;13.80;3.75;;;15.50;99.90;;;;;;5051560;28;20507;-44
2023/09/30 04:24:49;;;;;;;10.20;3.55;;;15.50;99.90;;;;;;5051209;28;20035;-44
2023/09/30 04:27:14;;;;;;;9.20;4.13;;;15.50;99.90;;;;;;5051428;28;20029;-44
2023/09/30 04:29:41;;;;;;;8.90;3.80;;;15.40;99.90;;;;;;5051647;28;20074;-45
2023/09/30 04:32:07;;;;;;;10.43;3.30;;;15.50;99.90;;;;;;5051575;28;20021;-45
2023/09/30 04:34:32;;;;;;;12.52;4.63;;;15.40;99.90;;;;;;5050948;28;20480;-48
2023/09/30 04:36:59;;;;;;;10.23;3.67;;;15.40;99.90;;;;;;5051508;28;20029;-45
2023/09/30 04:39:25;;;;;;;10.48;4.30;;;15.40;99.90;;;;;;5051408;28;20104;-45
2023/09/30 04:41:50;;;;;;;12.77;4.63;;;15.40;99.90;;;;;;5051433;28;20057;-48
2023/09/30 04:44:16;;;;;;;11.20;3.42;;;15.40;99.90;;;;;;5051094;28;20029;-45
2023/09/30 04:46:45;;;;;;;7.65;3.50;;;15.40;99.90;;;;;;5051131;28;20020;-46
2023/09/30 04:49:15;;;;;;;19.88;5.47;;;15.40;99.90;;;;;;5051569;28;20037;-47
2023/09/30 04:51:40;;;;;;;10.38;4.03;;;15.30;99.90;;;;;;5051246;28;20029;-46
2023/09/30 04:54:10;;;;;;;15.88;6.05;;;15.30;99.90;;;;;;5051033;28;20025;-49
2023/09/30 04:56:36;;;;;;;11.93;4.13;;;15.30;99.90;;;;;;5054951;28;20029;-47
2023/09/30 04:59:02;;;;;;;15.00;4.90;;;15.30;99.90;;;;;;5055455;28;20400;-46
2023/09/30 05:01:28;;;;;;;11.70;4.60;;;15.20;99.90;;;;;;5055256;28;20446;-47
2023/09/30 05:03:54;;;;;;;10.85;4.75;;;15.20;99.90;;;;;;5053785;28;20021;-46
2023/09/30 05:06:19;;;;;;;12.02;5.35;;;15.20;99.90;;;;;;5055146;28;20396;-46
2023/09/30 05:08:45;;;;;;;11.80;5.32;;;15.10;99.90;;;;;;5055157;28;20050;-48
2023/09/30 05:11:10;;;;;;;13.95;4.63;;;15.10;99.90;;;;;;5055176;28;20021;-47
2023/09/30 05:13:36;;;;;;;13.75;4.65;;;15.10;99.90;;;;;;5055184;28;20021;-46
2023/09/30 05:16:03;;;;;;;15.77;5.57;;;15.00;99.90;;;;;;5054741;28;20070;-46
2023/09/30 05:18:29;;;;;;;11.85;4.38;;;15.00;99.90;;;;;;5055161;28;20037;-48
2023/09/30 05:20:55;;;;;;;18.33;5.00;;;14.90;99.90;;;;;;5054875;28;20025;-46
2023/09/30 05:23:20;;;;;;;9.73;4.47;;;14.90;99.90;;;;;;5054854;28;20031;-46
2023/09/30 05:25:46;;;;;;;16.33;5.40;;;14.90;99.90;;;;;;5054660;28;20045;-48
2023/09/30 05:28:13;;;;;;;10.50;4.05;;;14.90;99.90;;;;;;5054799;28;20025;-48
2023/09/30 05:30:40;;;;;;;9.25;3.72;;;14.90;99.90;;;;;;5054754;28;20021;-45
2023/09/30 05:33:06;;;;;;;8.38;4.05;;;14.90;99.90;;;;;;5054539;28;20025;-46
2023/09/30 05:35:32;;;;;;;11.65;3.90;;;14.90;99.90;;;;;;5054577;28;20017;-47
2023/09/30 05:37:58;;;;;;;12.43;4.60;;;14.90;99.90;;;;;;5054725;28;20025;-49
2023/09/30 05:40:25;;;;;;;9.52;3.88;;;14.90;99.90;;;;;;5054992;28;20029;-47
2023/09/30 05:42:57;;;;;;;11.10;4.88;;;14.80;99.90;;;;;;5054854;28;20021;-48
2023/09/30 05:45:23;;;;;;;10.48;5.93;;;14.80;99.90;;;;;;5054810;28;20039;-47
2023/09/30 05:47:52;;;;;;;10.60;4.75;;;14.80;99.90;;;;;;5054737;28;20021;-47
2023/09/30 05:50:23;;;;;;;11.40;4.55;;;14.80;99.90;;;;;;5054639;28;20017;-50
2023/09/30 05:52:50;;;;;;;8.52;4.38;;;14.80;99.90;;;;;;5054627;28;20098;-46
2023/09/30 05:55:19;;;;;;;14.48;5.60;;;14.80;99.90;;;;;;5054557;28;20028;-45
2023/09/30 05:57:45;;;;;;;16.45;5.30;;;14.90;99.90;;;;;;5056055;28;20043;-47
2023/09/30 06:00:20;;;;;;;9.55;3.95;;;14.90;99.90;;;;;;5054449;28;20025;-51
2023/09/30 06:02:47;;;;;;;9.50;4.38;;;15.00;99.90;;;;;;5054521;28;20036;-48
2023/09/30 06:05:15;;;;;;;15.50;5.18;;;15.10;99.90;;;;;;5054195;28;20392;-48
2023/09/30 06:07:41;;;;;;;17.10;6.05;;;15.20;99.90;;;;;;5053071;28;20032;-47
2023/09/30 06:10:09;;;;;;;9.98;4.82;;;15.30;99.90;;;;;;5054035;28;20419;-46
2023/09/30 06:12:35;;;;;;;12.48;5.65;;;15.30;99.90;;;;;;5054398;28;20451;-48
2023/09/30 06:15:02;;;;;;;11.05;4.85;;;15.40;99.90;;;;;;5054223;28;20021;-45
2023/09/30 06:17:28;;;;;;;13.35;5.93;;;15.50;99.90;;;;;;5054373;28;20104;-47
2023/09/30 06:19:54;;;;;;;16.13;6.10;;;15.60;99.90;;;;;;5054733;28;20056;-51
2023/09/30 06:22:21;;;;;;;10.57;4.70;;;15.60;99.90;;;;;;5054192;28;20021;-48
2023/09/30 06:24:48;;;;;;;11.48;5.15;;;15.50;99.90;;;;;;5053994;28;20075;-47
2023/09/30 06:27:13;;;;;;;21.08;5.93;;;15.50;99.90;;;;;;5054095;28;20021;-48
2023/09/30 06:29:40;;;;;;;13.40;6.32;;;15.60;99.90;;;;;;5054248;28;20330;-48
2023/09/30 06:32:07;;;;;;;12.40;4.95;;;15.60;99.90;;;;;;5054196;28;20051;-48
2023/09/30 06:34:34;;;;;;;9.15;4.95;;;15.70;99.90;;;;;;5053480;28;20025;-47
2023/09/30 06:37:00;;;;;;;9.82;4.85;;;15.80;99.90;;;;;;5053928;28;20047;-47
2023/09/30 06:39:25;;;;;;;12.35;5.78;;;15.90;99.90;;;;;;5054085;28;20066;-48
2023/09/30 06:41:51;;;;;;;13.77;5.82;;;15.90;99.90;;;;;;5052787;28;20028;-48
2023/09/30 06:44:17;;;;;;;16.83;6.45;;;16.00;99.90;;;;;;5053784;28;20021;-46
2023/09/30 06:46:43;;;;;;;11.02;4.72;;;16.00;99.90;;;;;;5053786;28;20514;-47
2023/09/30 06:49:09;;;;;;;15.25;5.80;;;16.10;99.90;;;;;;5053945;28;20451;-49
2023/09/30 06:51:34;;;;;;;12.15;5.78;;;16.10;99.90;;;;;;5053840;28;20056;-47
2023/09/30 06:54:00;;;;;;;12.05;5.55;;;16.10;99.90;;;;;;5053401;28;20025;-47
2023/09/30 06:56:26;;;;;;;12.52;5.50;;;16.10;99.90;;;;;;5053206;28;20445;-48
2023/09/30 06:58:52;;;;;;;13.48;5.65;;;16.20;99.90;;;;;;5053410;28;20025;-46
2023/09/30 07:01:17;;;;;;;17.90;5.88;;;16.30;99.90;;;;;;5053157;28;20416;-46
2023/09/30 07:03:43;;;;;;;14.93;5.47;;;16.40;99.90;;;;;;5053421;28;20029;-48
2023/09/30 07:06:09;;;;;;;11.63;5.00;;;16.60;99.90;;;;;;5053258;28;20120;-47
2023/09/30 07:08:34;;;;;;;11.77;4.68;;;16.70;99.90;;;;;;5053544;28;20036;-47
2023/09/30 07:11:00;;;;;;;12.45;4.68;;;17.00;99.90;;;;;;5056687;28;20029;-46
2023/09/30 07:13:25;;;;;;;12.32;5.57;;;17.40;99.90;;;;;;5056397;28;20029;-46
2023/09/30 07:15:51;;;;;;;11.55;5.15;;;17.60;99.90;;;;;;5052707;28;20044;-48
2023/09/30 07:18:17;;;;;;;10.98;4.97;;;17.80;99.90;;;;;;5052605;28;20044;-48
2023/09/30 07:20:43;;;;;;;15.65;4.85;;;17.70;99.90;;;;;;5053212;28;20032;-47
2023/09/30 07:23:09;;;;;;;17.63;5.25;;;17.70;99.90;;;;;;5052595;28;20025;-47
2023/09/30 07:25:34;;;;;;;13.52;4.75;;;17.90;99.90;;;;;;5052476;28;20032;-47
2023/09/30 07:28:00;;;;;;;11.95;4.13;;;18.60;99.90;;;;;;5051178;28;20116;-47
2023/09/30 07:30:26;;;;;;;13.73;4.97;;;19.40;99.90;;;;;;5052510;28;20449;-47
2023/09/30 07:32:52;;;;;;;8.82;4.38;;;20.10;99.90;;;;;;5052444;28;20039;-47
2023/09/30 07:35:18;;;;;;;12.15;4.95;;;20.40;99.90;;;;;;5052402;28;20040;-47
2023/09/30 07:37:44;;;;;;;16.70;5.40;;;20.20;99.90;;;;;;5053134;28;20302;-47
2023/09/30 07:40:10;;;;;;;9.88;4.03;;;19.90;99.90;;;;;;5052880;28;20025;-46
2023/09/30 07:42:36;;;;;;;10.63;4.13;;;19.70;99.90;;;;;;5052749;28;20028;-49
2023/09/30 07:45:05;;;;;;;11.68;5.40;;;19.50;99.90;;;;;;5052631;28;20105;-48
2023/09/30 07:47:33;;;;;;;10.23;5.10;;;19.30;99.90;;;;;;5052985;28;20480;-49
2023/09/30 07:49:59;;;;;;;9.20;4.55;;;18.90;99.90;;;;;;5052678;28;20028;-47
2023/09/30 07:52:26;;;;;;;11.10;5.00;;;18.70;99.90;;;;;;5052581;28;20082;-47
2023/09/30 07:54:51;;;;;;;9.43;4.53;;;18.60;99.90;;;;;;5052568;28;20039;-48
2023/09/30 07:57:17;;;;;;;8.65;5.40;;;18.50;99.90;;;;;;5052343;28;20025;-45
2023/09/30 07:59:42;;;;;;;12.02;6.00;;;18.30;99.90;;;;;;5052450;28;20021;-50
2023/09/30 08:02:08;;;;;;;15.73;5.25;;;18.30;99.90;;;;;;5052222;28;20400;-50
2023/09/30 08:04:34;;;;;;;17.73;6.20;;;18.20;99.90;;;;;;5051853;28;20480;-47
2023/09/30 08:06:59;;;;;;;12.73;6.15;;;18.10;99.90;;;;;;5052080;28;20033;-45
2023/09/30 08:09:25;;;;;;;12.77;5.70;;;18.20;99.90;;;;;;5051931;28;20028;-46
2023/09/30 08:11:53;;;;;;;13.52;5.80;;;18.20;99.90;;;;;;5051862;28;20027;-47
2023/09/30 08:14:19;;;;;;;15.75;5.82;;;18.20;99.90;;;;;;5051337;28;20017;-47
2023/09/30 08:16:44;;;;;;;11.05;5.35;;;18.20;99.90;;;;;;5051742;28;20606;-47
2023/09/30 08:19:10;;;;;;;14.95;6.38;;;18.10;99.90;;;;;;5051735;28;20021;-47
2023/09/30 08:21:35;;;;;;;17.35;5.20;;;18.10;99.90;;;;;;5051580;28;20342;-48
2023/09/30 08:24:02;;;;;;;11.10;4.70;;;18.00;99.90;;;;;;5051453;28;20041;-46
2023/09/30 08:26:27;;;;;;;13.55;5.97;;;17.80;99.90;;;;;;5051497;28;20036;-50
2023/09/30 08:28:53;;;;;;;15.90;6.03;;;17.80;99.90;;;;;;5051723;28;20021;-46
2023/09/30 08:31:19;;;;;;;12.48;5.80;;;17.80;99.90;;;;;;5050966;28;20029;-47
2023/09/30 08:33:45;;;;;;;9.70;5.32;;;17.70;99.90;;;;;;5051191;28;20028;-48
2023/09/30 08:36:11;;;;;;;15.00;6.15;;;17.70;99.90;;;;;;5051132;28;20029;-46
2023/09/30 08:38:38;;;;;;;14.02;4.40;;;17.80;99.90;;;;;;5051906;28;20056;-47
2023/09/30 08:41:04;;;;;;;12.13;5.38;;;17.70;99.90;;;;;;5052121;28;20021;-49
2023/09/30 08:43:31;;;;;;;10.65;4.78;;;17.60;99.90;;;;;;5051043;28;20028;-53
2023/09/30 08:45:59;;;;;;;15.02;5.15;;;17.60;99.90;;;;;;5051063;28;20028;-47
2023/09/30 08:48:27;;;;;;;10.57;4.78;;;17.70;99.90;;;;;;5051183;28;20029;-47
2023/09/30 08:50:54;;;;;;;10.38;5.00;;;17.70;99.90;;;;;;5051115;28;20021;-47
2023/09/30 08:53:20;;;;;;;11.70;5.13;;;17.70;99.90;;;;;;5051328;28;20013;-48
2023/09/30 08:55:47;;;;;;;15.27;4.78;;;17.80;99.90;;;;;;5051148;28;20399;-47
2023/09/30 08:58:13;;;;;;;10.77;5.53;;;17.80;99.90;;;;;;5051367;28;20036;-48
2023/09/30 09:00:39;;;;;;;12.35;4.72;;;18.50;99.90;;;;;;5051129;28;20485;-47
2023/09/30 09:03:06;;;;;;;19.55;5.30;;;19.70;99.90;;;;;;5051291;28;20580;-47
2023/09/30 09:05:32;;;;;;;7.60;3.85;;;21.10;99.90;;;;;;5051111;28;20056;-46
2023/09/30 09:07:57;;;;;;;5.93;2.80;;;22.50;99.90;;;;;;5051316;28;20075;-47
2023/09/30 09:10:23;;;;;;;7.88;2.83;;;23.20;98.00;;;;;;5051220;28;20033;-51
2023/09/30 09:12:57;;;;;;;9.07;3.03;;;24.20;95.70;;;;;;5050901;28;20021;-45
2023/09/30 09:15:28;;;;;;;7.15;2.85;;;25.30;94.70;;;;;;5050815;28;22116;-45
2023/09/30 09:17:54;;;;;;;5.72;2.85;;;25.90;93.80;;;;;;5051182;28;20396;-45
2023/09/30 09:20:21;;;;;;;6.32;2.05;;;26.40;91.70;;;;;;5051038;28;20025;-47
2023/09/30 09:22:53;;;;;;;9.40;2.60;;;26.60;89.00;;;;;;5051019;28;20024;-47
2023/09/30 09:25:23;;;;;;;4.53;2.05;;;27.30;86.50;;;;;;5051032;28;20029;-50
2023/09/30 09:27:49;;;;;;;7.40;2.30;;;26.90;84.00;;;;;;5051497;28;20029;-47
2023/09/30 09:30:16;;;;;;;5.05;2.40;;;27.30;83.50;;;;;;5051721;28;20033;-46
2023/09/30 09:33:04;;;;;;;6.88;2.40;;;27.50;83.00;;;;;;5051755;28;20025;-50
2023/09/30 09:35:32;;;;;;;7.70;2.88;;;27.60;82.20;;;;;;5050922;28;20048;-45
2023/09/30 09:38:00;;;;;;;6.13;3.00;;;27.70;84.40;;;;;;5051226;28;20025;-48
2023/09/30 09:40:32;;;;;;;6.28;2.85;;;27.40;85.70;;;;;;5050731;28;20025;-46
2023/09/30 09:42:58;;;;;;;8.18;3.03;;;26.90;86.00;;;;;;5054358;28;20095;-50
2023/09/30 09:45:26;;;;;;;7.60;3.00;;;26.70;87.20;;;;;;5054358;28;20037;-47
2023/09/30 09:47:53;;;;;;;5.78;2.92;;;25.90;87.80;;;;;;5054439;28;20078;-48
2023/09/30 09:50:22;;;;;;;10.00;2.67;;;25.40;90.00;;;;;;5054604;28;20303;-47
2023/09/30 09:52:50;;;;;;;9.27;3.53;;;25.00;90.70;;;;;;5054986;28;20021;-47
2023/09/30 09:55:17;;;;;;;5.25;2.83;;;24.80;90.80;;;;;;5055630;28;20043;-49
2023/09/30 09:57:44;;;;;;;7.88;2.72;;;24.70;90.80;;;;;;5054416;28;20056;-46
2023/09/30 10:00:14;;;;;;;6.13;3.10;;;24.40;90.30;;;;;;5054361;28;20033;-51
2023/09/30 10:02:41;;;;;;;8.60;3.35;;;24.30;90.70;;;;;;5054418;28;20025;-48
2023/09/30 10:05:07;;;;;;;7.30;2.40;;;24.30;90.90;;;;;;5053721;28;20021;-49
2023/09/30 10:07:43;;;;;;;10.38;3.00;;;24.30;91.10;;;;;;5053865;28;20051;-48
2023/09/30 10:10:14;;;;;;;9.60;3.03;;;24.20;91.60;;;;;;5054047;28;20025;-46
2023/09/30 10:12:40;;;;;;;8.52;3.03;;;23.80;91.30;;;;;;5054203;28;20074;-47
2023/09/30 10:15:27;;;;;;;9.27;3.72;;;23.50;92.20;;;;;;5053484;28;20480;-48
2023/09/30 10:17:59;;;;;;;9.18;3.47;;;23.20;92.80;;;;;;5053745;28;20100;-47
2023/09/30 10:20:32;;;;;;;11.02;3.58;;;22.70;93.70;;;;;;5053985;28;20130;-48
2023/09/30 10:23:16;;;;;;;8.25;3.33;;;22.20;94.80;;;;;;5053668;28;20400;-48
2023/09/30 10:25:47;;;;;;;10.05;4.05;;;22.10;95.30;;;;;;5053388;28;20112;-48
2023/09/30 10:28:41;;;;;;;9.52;3.60;;;21.90;95.70;;;;;;5053608;28;20492;-48
2023/09/30 10:31:19;;;;;;;12.18;3.88;;;21.80;95.80;;;;;;5053590;28;20017;-48
2023/09/30 10:34:02;;;;;;;6.35;3.20;;;21.70;95.90;;;;;;5053443;28;20389;-48
2023/09/30 10:36:29;;;;;;;12.27;3.90;;;21.80;96.00;;;;;;5053018;28;20032;-45
2023/09/30 10:38:55;;;;;;;8.18;3.35;;;21.70;96.50;;;;;;5053735;28;20027;-49
2023/09/30 10:41:47;;;;;;;7.50;3.83;;;21.60;97.00;;;;;;5053549;28;20025;-46
2023/09/30 10:44:29;;;;;;;12.10;3.47;;;21.60;97.20;;;;;;5052886;28;20021;-47
2023/09/30 10:46:57;;;;;;;9.77;4.03;;;21.50;98.00;;;;;;5053544;28;20047;-46
2023/09/30 10:49:23;;;;;;;12.65;3.83;;;21.50;97.30;;;;;;5052968;28;20048;-47
2023/09/30 10:51:56;;;;;;;9.52;3.70;;;21.30;97.20;;;;;;5053415;28;20112;-45
2023/09/30 10:54:27;;;;;;;8.55;3.72;;;21.40;97.10;;;;;;5052183;28;20033;-47
2023/09/30 10:56:52;;;;;;;14.32;5.78;;;21.20;96.90;;;;;;5052797;28;20059;-45
2023/09/30 10:59:38;;;;;;;9.30;4.30;;;21.10;96.90;;;;;;5052934;28;20029;-51
2023/09/30 11:02:18;;;;;;;7.32;3.63;;;21.00;96.90;;;;;;5052702;28;20043;-45
2023/09/30 11:04:47;;;;;;;8.13;3.72;;;20.90;96.70;;;;;;5052925;28;20056;-53
2023/09/30 11:07:22;;;;;;;10.88;3.63;;;20.70;97.10;;;;;;5052991;28;20067;-45
2023/09/30 11:09:48;;;;;;;8.45;3.33;;;20.80;97.60;;;;;;5053013;28;20111;-47
2023/09/30 11:12:15;;;;;;;8.05;3.15;;;20.70;97.30;;;;;;5052709;28;20021;-46
2023/09/30 11:14:40;;;;;;;10.55;4.22;;;20.80;97.90;;;;;;5053039;28;20068;-47
2023/09/30 11:17:06;;;;;;;8.63;4.00;;;20.80;97.60;;;;;;5052848;28;20020;-46
2023/09/30 11:19:37;;;;;;;6.28;3.13;;;20.80;97.40;;;;;;5052779;28;20021;-47
2023/09/30 11:22:03;;;;;;;8.07;3.75;;;20.90;97.60;;;;;;5052741;28;20024;-48
2023/09/30 11:24:29;;;;;;;7.43;3.38;;;20.80;98.50;;;;;;5052850;28;20021;-49
2023/09/30 11:26:58;;;;;;;9.15;3.80;;;20.70;99.00;;;;;;5052535;28;20086;-48
2023/09/30 11:29:25;;;;;;;10.23;4.13;;;20.60;98.10;;;;;;5052464;28;20028;-46
2023/09/30 11:31:53;;;;;;;7.40;3.72;;;20.50;98.30;;;;;;5052848;28;20476;-48
2023/09/30 11:34:19;;;;;;;8.80;3.55;;;20.40;99.10;;;;;;5052165;28;20029;-50
2023/09/30 11:36:52;;;;;;;8.95;3.42;;;20.40;98.60;;;;;;5052827;28;20024;-48
2023/09/30 11:39:29;;;;;;;10.95;3.53;;;20.30;98.70;;;;;;5053080;28;20036;-47
2023/09/30 11:41:56;;;;;;;7.43;3.45;;;20.30;99.20;;;;;;5052649;28;20361;-47
2023/09/30 11:44:23;;;;;;;11.10;4.10;;;20.30;99.80;;;;;;5052261;28;20044;-46
2023/09/30 11:46:55;;;;;;;9.00;3.20;;;20.20;99.10;;;;;;5052537;28;20021;-47
2023/09/30 11:49:44;;;;;;;8.13;3.40;;;20.20;98.20;;;;;;5052030;28;20423;-47
2023/09/30 11:52:11;;;;;;;8.07;3.30;;;20.30;98.60;;;;;;5052210;28;20527;-48
2023/09/30 11:54:42;;;;;;;7.30;3.35;;;20.30;98.90;;;;;;5051924;28;20075;-46
2023/09/30 11:57:09;;;;;;;9.13;3.20;;;20.40;99.10;;;;;;5051846;28;20100;-46
2023/09/30 11:59:36;;;;;;;6.47;3.65;;;20.50;97.50;;;;;;5052153;28;20029;-46
2023/09/30 12:02:03;;;;;;;8.10;3.72;;;20.40;98.30;;;;;;5051782;28;20028;-47
2023/09/30 12:04:29;;;;;;;6.65;3.15;;;20.30;98.50;;;;;;5050738;28;20045;-46
2023/09/30 12:06:55;;;;;;;7.15;3.30;;;20.30;98.40;;;;;;5051761;28;20033;-49
2023/09/30 12:09:26;;;;;;;6.75;3.08;;;20.30;98.00;;;;;;5051963;28;20507;-47
2023/09/30 12:11:53;;;;;;;7.30;3.30;;;20.30;98.00;;;;;;5051970;28;20028;-48
2023/09/30 12:14:19;;;;;;;9.18;2.92;;;20.30;98.30;;;;;;5051648;28;20538;-49
2023/09/30 12:16:45;;;;;;;6.68;3.20;;;20.30;97.80;;;;;;5052112;28;20143;-49
2023/09/30 12:19:13;;;;;;;12.18;5.93;;;20.20;97.60;;;;;;5051920;28;20112;-49
2023/09/30 12:21:40;;;;;;;13.00;8.43;;;20.00;97.60;;;;;;5051944;28;20395;-50
2023/09/30 12:24:07;;;;;;;7.10;2.60;;;20.00;98.00;;;;;;5051551;28;20036;-50
2023/09/30 12:26:33;;;;;;;6.75;3.10;;;19.90;97.40;;;;;;5051387;28;20091;-47
2023/09/30 12:28:58;;;;;;;11.50;3.63;;;19.90;97.50;;;;;;5051678;28;20037;-45
2023/09/30 12:31:24;;;;;;;7.53;3.45;;;20.00;98.30;;;;;;5051606;28;20152;-48
2023/09/30 12:33:51;;;;;;;4.88;3.17;;;20.00;98.30;;;;;;5051047;28;20021;-48
2023/09/30 12:36:18;;;;;;;9.82;3.15;;;20.00;98.50;;;;;;5051090;28;20052;-48
2023/09/30 12:38:44;;;;;;;5.35;2.78;;;20.00;98.30;;;;;;5051120;28;20037;-47
2023/09/30 12:41:10;;;;;;;7.68;3.15;;;20.00;98.40;;;;;;5051196;28;20025;-48
2023/09/30 12:43:35;;;;;;;5.75;3.05;;;20.00;98.20;;;;;;5051173;28;20113;-48